TimeMDT,TemperatureF,Dew PointF,Humidity,Sea Level PressureIn,VisibilityMPH,Wind Direction,Wind SpeedMPH,Gust SpeedMPH,PrecipitationIn,Events,Conditions,WindDirDegrees,DateUTC
12:15 AM,33.8,10.4,38,30.20,10.0,Calm,Calm,-,N/A,,Clear,0,2012-10-10 06:15:00
12:35 AM,32.0,8.6,38,30.20,10.0,Calm,Calm,-,N/A,,Clear,0,2012-10-10 06:35:00
12:52 AM,30.2,6.8,37,30.21,10.0,Calm,Calm,-,N/A,,Clear,0,2012-10-10 06:52:00
1:15 AM,30.2,8.6,40,30.22,10.0,Calm,Calm,-,N/A,,Clear,0,2012-10-10 07:15:00
1:35 AM,30.2,10.4,44,30.22,10.0,Calm,Calm,-,N/A,,Clear,0,2012-10-10 07:35:00
1:55 AM,28.4,12.2,51,30.22,10.0,Calm,Calm,-,N/A,,Clear,0,2012-10-10 07:55:00
2:10 AM,28.4,10.4,47,30.23,10.0,Calm,Calm,-,N/A,,Clear,0,2012-10-10 08:10:00
2:33 AM,28.4,10.4,47,30.23,10.0,North,4.6,-,N/A,,Clear,360,2012-10-10 08:33:00
2:55 AM,24.8,12.2,59,30.23,10.0,Calm,Calm,-,N/A,,Clear,0,2012-10-10 08:55:00
3:06 AM,24.8,10.4,54,30.23,10.0,Calm,Calm,-,N/A,,Clear,0,2012-10-10 09:06:00
3:35 AM,26.6,8.6,47,30.23,10.0,Calm,Calm,-,N/A,,Clear,0,2012-10-10 09:35:00
3:53 AM,23.0,8.6,54,30.23,10.0,Calm,Calm,-,N/A,,Clear,0,2012-10-10 09:53:00
4:09 AM,23.0,10.4,59,30.23,10.0,Calm,Calm,-,N/A,,Clear,0,2012-10-10 10:09:00
4:35 AM,23.0,10.4,59,30.24,10.0,Calm,Calm,-,N/A,,Clear,0,2012-10-10 10:35:00
4:53 AM,24.8,10.4,54,30.24,10.0,Calm,Calm,-,N/A,,Clear,0,2012-10-10 10:53:00
5:15 AM,23.0,8.6,54,30.24,10.0,Calm,Calm,-,N/A,,Clear,0,2012-10-10 11:15:00
5:31 AM,23.0,8.6,54,30.25,10.0,Calm,Calm,-,N/A,,Clear,0,2012-10-10 11:31:00
5:55 AM,21.2,6.8,54,30.25,10.0,Calm,Calm,-,N/A,,Clear,0,2012-10-10 11:55:00
6:03 AM,23.0,8.6,54,30.25,10.0,Calm,Calm,-,N/A,,Clear,0,2012-10-10 12:03:00
6:55 AM,21.2,8.6,58,30.26,10.0,Calm,Calm,-,N/A,,Clear,0,2012-10-10 12:55:00
7:15 AM,21.2,10.4,63,30.26,10.0,Calm,Calm,-,N/A,,Clear,0,2012-10-10 13:15:00
7:32 AM,21.2,8.6,58,30.26,10.0,Calm,Calm,-,N/A,,Clear,0,2012-10-10 13:32:00
7:55 AM,21.2,8.6,58,30.27,10.0,Calm,Calm,-,N/A,,Clear,0,2012-10-10 13:55:00
8:06 AM,21.2,8.6,58,30.27,10.0,Calm,Calm,-,N/A,,Clear,0,2012-10-10 14:06:00
8:35 AM,30.2,12.2,47,30.28,10.0,Calm,Calm,-,N/A,,Clear,0,2012-10-10 14:35:00
8:44 AM,30.2,12.2,47,30.28,10.0,Calm,Calm,-,N/A,,Clear,0,2012-10-10 14:44:00
9:15 AM,33.8,12.2,41,30.28,10.0,Calm,Calm,-,N/A,,Clear,0,2012-10-10 15:15:00
9:25 AM,33.8,10.4,38,30.27,10.0,Calm,Calm,-,N/A,,Clear,0,2012-10-10 15:25:00
9:51 AM,37.4,12.2,36,30.26,10.0,Calm,Calm,-,N/A,,Clear,0,2012-10-10 15:51:00
10:15 AM,39.2,12.2,33,30.26,10.0,Calm,Calm,-,N/A,,Clear,0,2012-10-10 16:15:00
10:55 AM,44.6,14.0,29,30.24,10.0,Calm,Calm,-,N/A,,Clear,0,2012-10-10 16:55:00
11:13 AM,50.0,14.0,24,30.24,10.0,Calm,Calm,-,N/A,,Clear,0,2012-10-10 17:13:00
11:35 AM,53.6,14.0,21,30.22,10.0,East,3.5,-,N/A,,Clear,100,2012-10-10 17:35:00
11:49 AM,55.4,12.2,18,30.21,10.0,Calm,Calm,-,N/A,,Clear,0,2012-10-10 17:49:00
12:12 PM,59.0,12.2,16,30.19,10.0,Calm,Calm,-,N/A,,Clear,0,2012-10-10 18:12:00
12:29 PM,62.6,12.2,14,30.18,10.0,Calm,Calm,-,N/A,,Clear,0,2012-10-10 18:29:00
12:51 PM,68.0,12.2,12,30.16,10.0,West,6.9,-,N/A,,Scattered Clouds,280,2012-10-10 18:51:00
1:14 PM,69.8,10.4,10,30.15,10.0,WNW,11.5,23.0,N/A,,Clear,290,2012-10-10 19:14:00
1:35 PM,69.8,12.2,11,30.14,10.0,West,6.9,-,N/A,,Scattered Clouds,260,2012-10-10 19:35:00
1:52 PM,69.8,10.4,10,30.13,10.0,WSW,16.1,25.3,N/A,,Mostly Cloudy,240,2012-10-10 19:52:00
2:15 PM,69.8,12.2,11,30.13,10.0,West,15.0,23.0,N/A,,Mostly Cloudy,260,2012-10-10 20:15:00
2:33 PM,69.8,10.4,10,30.12,10.0,WSW,16.1,23.0,N/A,,Scattered Clouds,250,2012-10-10 20:33:00
2:46 PM,69.8,12.2,11,30.12,10.0,WSW,15.0,25.3,N/A,,Mostly Cloudy,250,2012-10-10 20:46:00
3:06 PM,68.0,12.2,12,30.12,10.0,WNW,12.7,20.7,N/A,,Scattered Clouds,300,2012-10-10 21:06:00
3:27 PM,66.2,12.2,12,30.12,10.0,WNW,8.1,19.6,N/A,,Scattered Clouds,290,2012-10-10 21:27:00
3:47 PM,66.2,14.0,13,30.13,10.0,West,17.3,28.8,N/A,,Scattered Clouds,270,2012-10-10 21:47:00
4:13 PM,69.8,14.0,12,30.12,10.0,WNW,13.8,20.7,N/A,,Clear,290,2012-10-10 22:13:00
4:33 PM,68.0,14.0,12,30.12,10.0,WNW,9.2,18.4,N/A,,Clear,290,2012-10-10 22:33:00
4:45 PM,64.4,14.0,14,30.12,10.0,NNW,11.5,17.3,N/A,,Clear,330,2012-10-10 22:45:00
5:03 PM,64.4,14.0,14,30.12,10.0,NW,10.4,-,N/A,,Scattered Clouds,320,2012-10-10 23:03:00
5:28 PM,62.6,14.0,15,30.12,10.0,NW,9.2,-,N/A,,Scattered Clouds,320,2012-10-10 23:28:00
5:51 PM,60.8,15.8,17,30.12,10.0,NNW,9.2,-,N/A,,Scattered Clouds,330,2012-10-10 23:51:00
6:11 PM,60.8,15.8,17,30.12,10.0,NNW,8.1,-,N/A,,Scattered Clouds,330,2012-10-11 00:11:00
6:25 PM,60.8,17.6,19,30.12,10.0,NNW,8.1,-,N/A,,Scattered Clouds,340,2012-10-11 00:25:00
6:55 PM,55.4,19.4,25,30.13,10.0,Calm,Calm,-,N/A,,Clear,0,2012-10-11 00:55:00
7:12 PM,53.6,17.6,24,30.14,10.0,WSW,3.5,-,N/A,,Clear,240,2012-10-11 01:12:00
7:23 PM,51.8,17.6,26,30.14,10.0,Calm,Calm,-,N/A,,Clear,0,2012-10-11 01:23:00
7:54 PM,51.8,19.4,28,30.15,10.0,Calm,Calm,-,N/A,,Clear,0,2012-10-11 01:54:00
8:01 PM,53.6,19.4,26,30.14,10.0,Calm,Calm,-,N/A,,Clear,0,2012-10-11 02:01:00
8:23 PM,46.4,15.8,29,30.15,10.0,East,4.6,-,N/A,,Clear,90,2012-10-11 02:23:00
8:53 PM,44.6,17.6,34,30.16,10.0,Calm,Calm,-,N/A,,Clear,0,2012-10-11 02:53:00
9:02 PM,42.8,17.6,36,30.16,10.0,Calm,Calm,-,N/A,,Clear,0,2012-10-11 03:02:00
9:41 PM,44.6,17.6,34,30.17,10.0,East,3.5,-,N/A,,Clear,90,2012-10-11 03:41:00
10:10 PM,42.8,19.4,39,30.17,10.0,NNE,3.5,-,N/A,,Scattered Clouds,30,2012-10-11 04:10:00
10:27 PM,44.6,19.4,37,30.17,10.0,NE,3.5,-,N/A,,Scattered Clouds,50,2012-10-11 04:27:00
10:40 PM,42.8,19.4,39,30.18,10.0,South,3.5,-,N/A,,Scattered Clouds,180,2012-10-11 04:40:00
11:15 PM,41.0,21.2,45,30.18,10.0,Calm,Calm,-,N/A,,Scattered Clouds,0,2012-10-11 05:15:00
11:21 PM,42.8,19.4,39,30.18,10.0,Calm,Calm,-,N/A,,Scattered Clouds,0,2012-10-11 05:21:00
11:42 PM,41.0,21.2,45,30.18,10.0,Calm,Calm,-,N/A,,Mostly Cloudy,0,2012-10-11 05:42:00
11:59 PM,42.8,19.4,39,30.19,10.0,Calm,Calm,-,N/A,,Overcast,0,2012-10-11 05:59:00